Time;durP1;ratioP1;P1;durP2;ratioP2;P2;SDS_P1;SDS_P2;PMS_P1;PMS_P2;Temp;Humidity;BMP_temperature;BMP_pressure;BME280_temperature;BME280_humidity;BME280_pressure;Samples;Min_cycle;Max_cycle;Signal;HPM_P1;HPM_P2
2021/11/19 00:00:12;;;;;;;21.88;11.80;;;;;;;;;;4956280;29;20083;-69
2021/11/19 00:02:38;;;;;;;23.17;12.52;;;;;;;;;;4956363;29;20548;-70
2021/11/19 00:05:06;;;;;;;20.80;12.60;;;;;;;;;;4956249;29;20055;-70
2021/11/19 00:07:33;;;;;;;22.85;11.27;;;;;;;;;;4956470;29;20051;-70
2021/11/19 00:10:00;;;;;;;17.80;11.43;;;;;;;;;;4956367;29;20051;-70
2021/11/19 00:12:27;;;;;;;16.95;10.52;;;;;;;;;;4956256;29;20110;-71
2021/11/19 00:14:53;;;;;;;18.42;10.57;;;;;;;;;;4946254;29;20055;-70
2021/11/19 00:17:20;;;;;;;20.60;11.30;;;;;;;;;;4936986;29;20087;-70
2021/11/19 00:19:47;;;;;;;21.15;12.02;;;;;;;;;;4937107;29;20048;-70
2021/11/19 00:22:16;;;;;;;18.83;11.20;;;;;;;;;;4936777;29;20064;-70
2021/11/19 00:24:42;;;;;;;18.33;11.18;;;;;;;;;;4937048;29;20467;-70
2021/11/19 00:27:10;;;;;;;16.83;11.63;;;;;;;;;;4953441;29;20094;-70
2021/11/19 00:29:38;;;;;;;17.45;10.55;;;;;;;;;;4955970;29;20054;-70
2021/11/19 00:32:05;;;;;;;18.33;10.45;;;;;;;;;;4955941;29;20478;-70
2021/11/19 00:34:31;;;;;;;18.67;10.88;;;;;;;;;;4939045;28;20047;-70
2021/11/19 00:37:00;;;;;;;18.85;11.95;;;;;;;;;;4954718;29;20058;-70
2021/11/19 00:39:27;;;;;;;20.25;12.75;;;;;;;;;;4955660;29;20055;-70
2021/11/19 00:41:54;;;;;;;24.83;12.52;;;;;;;;;;4955857;29;20055;-70
2021/11/19 00:44:22;;;;;;;24.25;12.20;;;;;;;;;;4955633;29;20051;-70
2021/11/19 00:46:50;;;;;;;24.30;11.82;;;;;;;;;;4955704;29;20558;-70
2021/11/19 00:49:19;;;;;;;29.67;13.77;;;;;;;;;;4950272;29;20051;-70
2021/11/19 00:51:48;;;;;;;19.98;12.35;;;;;;;;;;4936382;29;20103;-70
2021/11/19 00:54:15;;;;;;;25.77;11.35;;;;;;;;;;4936492;29;20055;-70
2021/11/19 00:56:51;;;;;;;23.15;11.00;;;;;;;;;;4936467;29;20048;-70
2021/11/19 00:59:20;;;;;;;18.98;12.02;;;;;;;;;;4936032;29;20052;-70
2021/11/19 01:01:54;;;;;;;18.20;11.63;;;;;;;;;;4947452;29;20051;-70
2021/11/19 01:04:22;;;;;;;19.60;12.75;;;;;;;;;;4955300;29;20498;-70
2021/11/19 01:06:49;;;;;;;21.85;13.55;;;;;;;;;;4955449;29;20047;-70
2021/11/19 01:09:37;;;;;;;19.58;11.85;;;;;;;;;;4950835;29;20581;-70
2021/11/19 01:12:06;;;;;;;16.58;11.27;;;;;;;;;;4946776;29;20521;-70
2021/11/19 01:14:55;;;;;;;23.08;13.25;;;;;;;;;;4938288;29;20494;-70
2021/11/19 01:17:28;;;;;;;19.63;11.80;;;;;;;;;;4955018;29;20047;-70
2021/11/19 01:20:05;;;;;;;19.33;11.40;;;;;;;;;;4928364;29;20048;-70
2021/11/19 01:22:33;;;;;;;16.35;10.40;;;;;;;;;;4935187;29;20115;-70
2021/11/19 01:25:00;;;;;;;18.10;11.18;;;;;;;;;;4934963;29;20052;-70
2021/11/19 01:27:27;;;;;;;17.13;10.93;;;;;;;;;;4935828;29;20054;-69
2021/11/19 01:29:54;;;;;;;19.27;11.20;;;;;;;;;;4933856;29;20059;-70
2021/11/19 01:32:23;;;;;;;16.83;10.88;;;;;;;;;;4931041;29;20094;-70
2021/11/19 01:34:50;;;;;;;16.60;10.80;;;;;;;;;;4954776;29;20055;-70
2021/11/19 01:37:18;;;;;;;18.67;11.02;;;;;;;;;;4954576;29;20051;-69
2021/11/19 01:39:45;;;;;;;16.75;10.50;;;;;;;;;;4954584;29;20565;-70
2021/11/19 01:42:29;;;;;;;16.33;10.70;;;;;;;;;;4954422;29;20062;-70
2021/11/19 01:45:34;;;;;;;21.40;11.57;;;;;;;;;;4935943;29;20051;-70
2021/11/19 01:48:02;;;;;;;16.23;11.70;;;;;;;;;;4876340;29;20497;-70
2021/11/19 01:50:59;;;;;;;18.27;10.95;;;;;;;;;;4876558;29;20053;-70
2021/11/19 01:54:00;;;;;;;15.38;10.20;;;;;;;;;;4904646;29;20060;-70
2021/11/19 01:56:34;;;;;;;17.63;10.85;;;;;;;;;;4934845;29;20462;-70
2021/11/19 01:59:27;;;;;;;21.90;11.30;;;;;;;;;;4936464;29;20055;-70
2021/11/19 02:02:16;;;;;;;17.63;11.40;;;;;;;;;;4954192;29;20061;-70
2021/11/19 02:04:50;;;;;;;17.30;11.52;;;;;;;;;;4923016;29;20395;-70
2021/11/19 02:07:22;;;;;;;16.27;10.48;;;;;;;;;;4954204;29;20055;-70
2021/11/19 02:10:07;;;;;;;21.43;10.90;;;;;;;;;;4926811;29;20048;-70
2021/11/19 02:12:45;;;;;;;19.88;11.65;;;;;;;;;;4918059;29;20056;-70
2021/11/19 02:15:26;;;;;;;21.67;11.68;;;;;;;;;;4935057;29;20075;-70
2021/11/19 02:17:57;;;;;;;18.23;12.43;;;;;;;;;;4903035;29;20487;-70
2021/11/19 02:20:27;;;;;;;22.38;12.25;;;;;;;;;;4902595;29;20051;-70
2021/11/19 02:22:57;;;;;;;15.98;11.05;;;;;;;;;;4918051;29;20467;-70
2021/11/19 02:25:36;;;;;;;19.05;12.05;;;;;;;;;;4902566;29;20404;-70
2021/11/19 02:28:07;;;;;;;17.70;10.15;;;;;;;;;;4918258;29;20051;-70
2021/11/19 02:35:13;;;;;;;14.43;10.38;;;;;;;;;;4934902;29;20159;-70
2021/11/19 02:37:47;;;;;;;17.50;10.63;;;;;;;;;;4934795;29;20103;-70
2021/11/19 02:40:20;;;;;;;18.83;10.75;;;;;;;;;;4917852;29;20470;-70
2021/11/19 02:43:08;;;;;;;16.33;11.32;;;;;;;;;;4934677;29;20052;-70
2021/11/19 02:45:41;;;;;;;19.35;10.30;;;;;;;;;;4941844;29;20098;-70
2021/11/19 02:48:11;;;;;;;17.52;9.95;;;;;;;;;;4934629;29;20048;-70
2021/11/19 02:50:38;;;;;;;18.45;10.13;;;;;;;;;;4934614;29;20507;-70
2021/11/19 02:53:06;;;;;;;17.23;11.73;;;;;;;;;;4934395;29;20107;-70
2021/11/19 02:55:36;;;;;;;17.70;10.40;;;;;;;;;;4934706;29;20047;-70
2021/11/19 02:58:05;;;;;;;19.10;10.40;;;;;;;;;;4945489;28;20546;-70
2021/11/19 03:00:39;;;;;;;16.38;10.85;;;;;;;;;;4956802;29;20114;-70
2021/11/19 03:03:06;;;;;;;20.77;11.75;;;;;;;;;;4957411;29;20101;-70
2021/11/19 03:05:32;;;;;;;15.95;10.05;;;;;;;;;;4950101;29;20111;-70
2021/11/19 03:07:59;;;;;;;19.10;12.13;;;;;;;;;;4938342;29;20095;-70
2021/11/19 03:10:32;;;;;;;17.42;11.07;;;;;;;;;;4938667;29;20055;-69
2021/11/19 03:13:01;;;;;;;15.70;10.18;;;;;;;;;;4938470;29;20107;-69
2021/11/19 03:15:34;;;;;;;19.17;10.23;;;;;;;;;;4938202;29;20487;-70
2021/11/19 03:18:01;;;;;;;14.88;10.38;;;;;;;;;;4938157;29;20126;-70
2021/11/19 03:20:28;;;;;;;17.98;11.70;;;;;;;;;;4938010;29;20052;-70
2021/11/19 03:22:55;;;;;;;21.23;11.80;;;;;;;;;;4937587;29;20051;-69
2021/11/19 03:25:30;;;;;;;17.00;11.23;;;;;;;;;;4942825;29;20094;-70
2021/11/19 03:27:57;;;;;;;17.20;11.98;;;;;;;;;;4957021;29;20122;-69
2021/11/19 03:30:25;;;;;;;20.23;13.18;;;;;;;;;;4940007;29;20047;-70
2021/11/19 03:32:52;;;;;;;20.73;11.43;;;;;;;;;;4956919;29;20129;-70
2021/11/19 03:35:20;;;;;;;20.88;12.35;;;;;;;;;;4952442;29;20496;-70
2021/11/19 03:37:50;;;;;;;20.95;12.02;;;;;;;;;;4937773;29;20130;-69
2021/11/19 03:40:21;;;;;;;20.10;11.45;;;;;;;;;;4937554;29;20051;-70
2021/11/19 03:42:49;;;;;;;16.65;12.48;;;;;;;;;;4937675;29;20507;-69
2021/11/19 03:45:19;;;;;;;17.88;11.10;;;;;;;;;;4941187;29;20114;-70
2021/11/19 03:47:48;;;;;;;17.00;10.77;;;;;;;;;;4956795;29;20051;-70
2021/11/19 03:50:31;;;;;;;13.18;9.73;;;;;;;;;;4956738;29;20563;-70
2021/11/19 03:52:58;;;;;;;16.60;11.77;;;;;;;;;;4956659;29;20106;-70
2021/11/19 03:55:29;;;;;;;21.83;11.30;;;;;;;;;;4951442;29;20051;-70
2021/11/19 03:57:56;;;;;;;16.63;11.85;;;;;;;;;;4937427;29;20111;-70
2021/11/19 04:00:30;;;;;;;15.95;10.98;;;;;;;;;;4937221;29;20055;-70
2021/11/19 04:02:56;;;;;;;;;;;;;;;;;;4937848;29;20430;-70
2021/11/19 04:05:23;;;;;;;17.80;10.85;;;;;;;;;;4937305;29;19993;-69
2021/11/19 04:07:50;;;;;;;16.65;11.52;;;;;;;;;;4937393;29;20048;-70
2021/11/19 04:10:17;;;;;;;18.95;11.43;;;;;;;;;;4936856;29;20055;-70
2021/11/19 04:12:44;;;;;;;17.33;11.07;;;;;;;;;;4920283;29;20507;-69
2021/11/19 04:15:15;;;;;;;18.50;11.40;;;;;;;;;;4939372;29;20055;-70
2021/11/19 04:17:42;;;;;;;17.85;10.98;;;;;;;;;;4956360;29;20047;-70
2021/11/19 04:20:09;;;;;;;17.50;11.70;;;;;;;;;;4956001;29;20051;-70
2021/11/19 04:22:36;;;;;;;23.30;12.77;;;;;;;;;;4956197;29;20114;-70
2021/11/19 04:25:05;;;;;;;20.65;12.27;;;;;;;;;;4954407;29;20051;-70
2021/11/19 04:27:32;;;;;;;16.92;12.40;;;;;;;;;;4936883;29;20052;-69
2021/11/19 04:30:00;;;;;;;21.10;11.23;;;;;;;;;;4936882;29;20051;-70
2021/11/19 04:32:27;;;;;;;19.98;11.32;;;;;;;;;;4936606;29;20097;-70
2021/11/19 04:34:54;;;;;;;18.23;12.30;;;;;;;;;;4937079;29;20055;-70
2021/11/19 04:37:21;;;;;;;19.15;10.95;;;;;;;;;;4936665;29;20083;-70
2021/11/19 04:39:48;;;;;;;21.42;11.57;;;;;;;;;;4936480;29;20064;-70
2021/11/19 04:42:15;;;;;;;22.55;11.10;;;;;;;;;;4936463;29;20052;-70
2021/11/19 04:44:42;;;;;;;20.88;12.05;;;;;;;;;;4936713;29;20083;-70
2021/11/19 04:47:09;;;;;;;19.35;11.43;;;;;;;;;;4936374;29;20494;-70
2021/11/19 04:49:36;;;;;;;19.60;12.82;;;;;;;;;;4955560;28;20102;-70
2021/11/19 04:52:04;;;;;;;19.77;11.63;;;;;;;;;;4955326;29;20179;-70
2021/11/19 04:54:31;;;;;;;16.00;11.38;;;;;;;;;;4955708;29;20055;-70
2021/11/19 04:56:58;;;;;;;22.55;13.13;;;;;;;;;;4955500;29;20466;-70
2021/11/19 04:59:24;;;;;;;20.60;12.75;;;;;;;;;;4955338;28;20087;-70
2021/11/19 05:01:54;;;;;;;17.50;12.40;;;;;;;;;;4938342;29;20059;-69
2021/11/19 05:04:22;;;;;;;22.80;13.07;;;;;;;;;;4955373;29;20052;-70
2021/11/19 05:06:49;;;;;;;22.83;13.32;;;;;;;;;;4955287;29;20102;-70
2021/11/19 05:09:16;;;;;;;19.95;13.50;;;;;;;;;;4955263;29;20055;-69
2021/11/19 05:11:52;;;;;;;20.02;12.75;;;;;;;;;;4955092;29;20577;-70
2021/11/19 05:14:20;;;;;;;20.30;11.95;;;;;;;;;;4955099;29;20423;-69
2021/11/19 05:16:47;;;;;;;19.65;13.10;;;;;;;;;;4950081;29;20118;-70
2021/11/19 05:19:14;;;;;;;20.88;12.48;;;;;;;;;;4954899;29;20086;-69
2021/11/19 05:21:40;;;;;;;19.95;12.98;;;;;;;;;;4954187;28;20086;-69
2021/11/19 05:24:08;;;;;;;20.90;13.13;;;;;;;;;;4954881;29;20138;-69
2021/11/19 05:26:37;;;;;;;23.63;13.90;;;;;;;;;;4953042;29;20487;-70
2021/11/19 05:29:04;;;;;;;18.95;12.40;;;;;;;;;;4943210;29;20115;-70
2021/11/19 05:31:32;;;;;;;20.45;13.77;;;;;;;;;;4935516;29;20499;-70
2021/11/19 05:33:59;;;;;;;22.70;13.63;;;;;;;;;;4935679;29;20090;-70
2021/11/19 05:36:26;;;;;;;18.73;12.73;;;;;;;;;;4935545;29;20503;-70
2021/11/19 05:38:53;;;;;;;20.45;13.13;;;;;;;;;;4952582;29;20126;-70
2021/11/19 05:41:21;;;;;;;26.77;16.40;;;;;;;;;;4946200;29;20043;-70
2021/11/19 05:43:49;;;;;;;23.08;16.17;;;;;;;;;;4946489;29;20107;-70
2021/11/19 05:46:18;;;;;;;20.80;13.38;;;;;;;;;;4946297;29;20052;-69
2021/11/19 05:48:46;;;;;;;24.88;14.43;;;;;;;;;;4942834;28;20125;-70
2021/11/19 05:51:13;;;;;;;28.75;16.52;;;;;;;;;;4946843;28;20047;-69
2021/11/19 05:53:40;;;;;;;39.45;21.70;;;;;;;;;;4944256;29;20075;-70
2021/11/19 05:56:07;;;;;;;36.03;20.63;;;;;;;;;;4946808;29;20051;-70
2021/11/19 05:58:33;;;;;;;28.13;16.92;;;;;;;;;;4935212;29;20051;-70
2021/11/19 06:01:04;;;;;;;21.10;13.30;;;;;;;;;;4942176;29;20471;-70
2021/11/19 06:03:30;;;;;;;14.13;9.93;;;;;;;;;;4952209;29;20077;-69
2021/11/19 06:05:57;;;;;;;14.65;9.27;;;;;;;;;;4954709;29;20098;-68
2021/11/19 06:08:24;;;;;;;17.80;9.98;;;;;;;;;;4954313;29;20051;-72
2021/11/19 06:10:54;;;;;;;15.50;8.70;;;;;;;;;;4952376;28;20051;-71
2021/11/19 06:13:26;;;;;;;12.48;8.82;;;;;;;;;;4935198;29;20051;-72
2021/11/19 06:16:01;;;;;;;11.98;8.45;;;;;;;;;;4920053;29;20098;-72
2021/11/19 06:18:33;;;;;;;15.63;9.07;;;;;;;;;;4920433;29;20078;-71
2021/11/19 06:21:04;;;;;;;13.18;9.00;;;;;;;;;;4936291;29;20055;-70
2021/11/19 06:23:35;;;;;;;16.30;8.43;;;;;;;;;;4934938;29;20059;-71
2021/11/19 06:26:04;;;;;;;13.25;8.77;;;;;;;;;;4935136;29;20054;-70
2021/11/19 06:28:34;;;;;;;11.70;8.55;;;;;;;;;;4952242;29;20051;-71
2021/11/19 06:31:02;;;;;;;13.55;8.43;;;;;;;;;;4935092;29;20055;-71
2021/11/19 06:33:29;;;;;;;14.43;9.25;;;;;;;;;;4952193;28;20114;-71
2021/11/19 06:35:55;;;;;;;15.40;9.63;;;;;;;;;;4935798;29;20272;-71
2021/11/19 06:38:22;;;;;;;13.50;8.85;;;;;;;;;;4952137;29;20106;-71
2021/11/19 06:40:52;;;;;;;13.93;9.30;;;;;;;;;;4936241;29;20110;-69
2021/11/19 06:43:19;;;;;;;15.85;9.05;;;;;;;;;;4934628;29;20114;-70
2021/11/19 06:45:45;;;;;;;13.15;9.20;;;;;;;;;;4952334;29;20059;-70
2021/11/19 06:48:12;;;;;;;15.68;9.13;;;;;;;;;;4952553;29;20055;-70
2021/11/19 06:50:42;;;;;;;15.10;8.75;;;;;;;;;;4952106;29;20055;-70
2021/11/19 06:53:09;;;;;;;14.43;9.95;;;;;;;;;;4943734;29;20098;-70
2021/11/19 06:55:36;;;;;;;12.43;8.63;;;;;;;;;;4933548;29;20055;-71
2021/11/19 06:58:04;;;;;;;15.90;9.43;;;;;;;;;;4933168;29;20523;-70
2021/11/19 07:00:34;;;;;;;12.02;8.50;;;;;;;;;;4933073;29;20063;-70
2021/11/19 07:03:01;;;;;;;15.50;9.18;;;;;;;;;;4937212;29;20044;-70
2021/11/19 07:05:28;;;;;;;13.32;9.02;;;;;;;;;;4947127;29;20054;-70
2021/11/19 07:07:55;;;;;;;12.80;9.13;;;;;;;;;;4951740;29;20051;-70
2021/11/19 07:10:24;;;;;;;17.50;10.65;;;;;;;;;;4951334;28;20059;-70
2021/11/19 07:12:50;;;;;;;27.17;16.88;;;;;;;;;;4949455;29;20118;-70
2021/11/19 07:15:17;;;;;;;27.40;15.90;;;;;;;;;;4932182;29;20106;-69
2021/11/19 07:17:46;;;;;;;22.98;15.25;;;;;;;;;;4931797;29;20104;-70
2021/11/19 07:20:15;;;;;;;18.17;13.10;;;;;;;;;;4932840;29;20595;-70
2021/11/19 07:22:41;;;;;;;20.55;14.65;;;;;;;;;;4959360;28;20051;-73
2021/11/19 07:25:10;;;;;;;17.50;12.85;;;;;;;;;;4955499;28;20126;-70
2021/11/19 07:27:38;;;;;;;14.57;11.05;;;;;;;;;;4941299;28;20110;-67
2021/11/19 07:30:08;;;;;;;15.40;10.25;;;;;;;;;;4958474;28;20102;-69
2021/11/19 07:32:36;;;;;;;14.50;10.00;;;;;;;;;;4960765;28;20149;-68
2021/11/19 07:35:04;;;;;;;13.65;9.98;;;;;;;;;;4957507;28;20557;-70
2021/11/19 07:37:31;;;;;;;15.48;9.98;;;;;;;;;;4959576;28;20097;-69
2021/11/19 07:39:58;;;;;;;13.98;9.43;;;;;;;;;;4959310;28;20102;-69
2021/11/19 07:42:25;;;;;;;14.30;9.77;;;;;;;;;;4955659;28;20051;-68
2021/11/19 07:44:52;;;;;;;16.08;9.55;;;;;;;;;;4957664;28;20109;-73
2021/11/19 07:47:19;;;;;;;12.35;8.77;;;;;;;;;;4959233;28;20047;-69
2021/11/19 07:49:45;;;;;;;18.52;10.07;;;;;;;;;;4961253;28;20051;-69
2021/11/19 07:52:12;;;;;;;18.48;9.52;;;;;;;;;;4956982;28;20510;-69
2021/11/19 07:54:38;;;;;;;14.38;9.40;;;;;;;;;;4961484;28;20051;-69
2021/11/19 07:57:05;;;;;;;15.32;9.18;;;;;;;;;;4959095;28;20063;-69
2021/11/19 07:59:33;;;;;;;12.88;8.85;;;;;;;;;;4959448;28;20046;-69
2021/11/19 08:02:00;;;;;;;16.20;9.32;;;;;;;;;;4961909;28;20057;-71
2021/11/19 08:04:29;;;;;;;13.98;8.63;;;;;;;;;;4960507;28;20050;-68
2021/11/19 08:06:56;;;;;;;13.30;9.15;;;;;;;;;;4959464;28;20067;-69
2021/11/19 08:09:24;;;;;;;14.32;10.05;;;;;;;;;;4958878;28;20066;-69
2021/11/19 08:11:51;;;;;;;18.13;10.40;;;;;;;;;;4953766;28;20059;-76
2021/11/19 08:14:18;;;;;;;17.45;9.88;;;;;;;;;;4944143;28;20051;-73
2021/11/19 08:16:53;;;;;;;20.92;9.98;;;;;;;;;;4960433;28;20047;-73
2021/11/19 08:19:29;;;;;;;16.00;9.05;;;;;;;;;;4926343;28;20503;-73
2021/11/19 08:21:58;;;;;;;12.90;8.75;;;;;;;;;;4906235;28;20051;-72
2021/11/19 08:24:26;;;;;;;20.20;10.57;;;;;;;;;;4939567;28;20071;-72
2021/11/19 08:26:57;;;;;;;15.63;10.13;;;;;;;;;;4949976;28;20118;-69
2021/11/19 08:29:26;;;;;;;16.30;10.38;;;;;;;;;;4952977;28;20043;-71
2021/11/19 08:31:54;;;;;;;14.43;10.27;;;;;;;;;;4957198;28;20518;-69
2021/11/19 08:34:22;;;;;;;14.18;9.32;;;;;;;;;;4959075;28;20588;-67
2021/11/19 08:36:48;;;;;;;14.93;9.88;;;;;;;;;;4961987;28;20058;-72
2021/11/19 08:39:18;;;;;;;13.95;9.95;;;;;;;;;;4934276;28;20050;-68
2021/11/19 08:41:48;;;;;;;17.20;10.48;;;;;;;;;;4961055;28;20047;-72
2021/11/19 08:44:15;;;;;;;17.33;10.70;;;;;;;;;;4945527;28;20503;-73
2021/11/19 08:47:02;;;;;;;17.70;10.27;;;;;;;;;;4935661;28;20086;-72
2021/11/19 08:49:33;;;;;;;17.17;10.38;;;;;;;;;;4952115;28;20134;-65
2021/11/19 08:52:01;;;;;;;14.18;9.80;;;;;;;;;;4961450;28;20134;-69
2021/11/19 08:54:29;;;;;;;14.45;10.45;;;;;;;;;;4961497;28;20050;-69
2021/11/19 08:56:59;;;;;;;23.15;13.32;;;;;;;;;;4958820;28;20063;-71
2021/11/19 08:59:29;;;;;;;19.90;14.15;;;;;;;;;;4963488;28;20176;-70
2021/11/19 09:01:58;;;;;;;18.23;13.30;;;;;;;;;;4959794;28;20108;-74
2021/11/19 09:04:38;;;;;;;20.88;13.20;;;;;;;;;;4962640;28;20054;-72
2021/11/19 09:07:05;;;;;;;19.30;12.82;;;;;;;;;;4961324;28;20046;-69
2021/11/19 09:09:32;;;;;;;19.40;13.95;;;;;;;;;;4964707;28;20403;-68
2021/11/19 09:11:58;;;;;;;16.73;11.88;;;;;;;;;;4944369;28;20111;-69
2021/11/19 09:14:26;;;;;;;23.55;12.25;;;;;;;;;;4956250;28;20067;-70
2021/11/19 09:17:21;;;;;;;17.58;11.85;;;;;;;;;;4961109;28;20053;-71
2021/11/19 09:19:53;;;;;;;16.33;11.15;;;;;;;;;;4960022;28;20425;-68
2021/11/19 09:22:45;;;;;;;15.88;11.23;;;;;;;;;;4943669;28;20429;-67
2021/11/19 09:25:15;;;;;;;16.17;9.95;;;;;;;;;;4941032;28;20126;-68
2021/11/19 09:27:43;;;;;;;17.67;10.55;;;;;;;;;;4945799;28;20097;-69
2021/11/19 09:30:16;;;;;;;16.73;10.43;;;;;;;;;;4959415;28;20185;-69
2021/11/19 09:32:50;;;;;;;17.17;11.52;;;;;;;;;;4942393;29;20054;-67
2021/11/19 09:35:20;;;;;;;15.80;10.98;;;;;;;;;;4959932;28;20050;-69
2021/11/19 09:37:51;;;;;;;19.45;11.90;;;;;;;;;;4959302;28;20055;-70
2021/11/19 09:40:24;;;;;;;19.90;12.38;;;;;;;;;;4960466;28;20513;-70
2021/11/19 09:43:23;;;;;;;24.27;12.48;;;;;;;;;;4960680;28;20105;-69
2021/11/19 09:46:02;;;;;;;18.67;11.68;;;;;;;;;;4946208;28;20562;-68
2021/11/19 09:48:57;;;;;;;16.48;10.85;;;;;;;;;;4958837;28;20055;-67
2021/11/19 09:51:59;;;;;;;16.27;11.80;;;;;;;;;;4940377;28;20055;-67
2021/11/19 09:54:38;;;;;;;19.10;10.80;;;;;;;;;;4945444;28;20050;-69
2021/11/19 09:57:18;;;;;;;17.98;10.77;;;;;;;;;;4956337;28;20412;-66
2021/11/19 09:59:47;;;;;;;16.13;11.05;;;;;;;;;;4947421;28;20102;-66
2021/11/19 10:02:17;;;;;;;16.67;10.07;;;;;;;;;;4945422;28;20098;-66
2021/11/19 10:04:59;;;;;;;15.63;10.10;;;;;;;;;;4953529;28;20051;-67
2021/11/19 10:07:42;;;;;;;17.85;11.30;;;;;;;;;;4957234;28;20158;-66
2021/11/19 10:10:30;;;;;;;18.48;11.10;;;;;;;;;;4940349;28;20105;-66
2021/11/19 10:13:37;;;;;;;17.88;9.57;;;;;;;;;;4959338;28;20086;-66
2021/11/19 10:16:22;;;;;;;16.00;9.88;;;;;;;;;;4961072;28;20124;-66
2021/11/19 10:18:55;;;;;;;14.75;10.45;;;;;;;;;;4959747;28;20042;-66
2021/11/19 10:21:29;;;;;;;17.10;10.20;;;;;;;;;;4958295;28;20050;-66
2021/11/19 10:24:06;;;;;;;18.00;11.48;;;;;;;;;;4958700;28;20051;-67
2021/11/19 10:26:36;;;;;;;22.33;11.18;;;;;;;;;;4942835;28;20047;-67
2021/11/19 10:29:22;;;;;;;19.55;10.20;;;;;;;;;;4960192;28;20051;-66
2021/11/19 10:31:50;;;;;;;22.25;11.75;;;;;;;;;;4932543;28;20047;-68
2021/11/19 10:34:34;;;;;;;21.25;11.98;;;;;;;;;;4959329;28;20043;-67
2021/11/19 10:37:28;;;;;;;21.92;11.70;;;;;;;;;;4960415;28;20055;-66
2021/11/19 10:40:10;;;;;;;21.58;10.48;;;;;;;;;;4959682;28;20408;-67
2021/11/19 10:43:15;;;;;;;23.27;12.23;;;;;;;;;;4957098;28;20462;-67
2021/11/19 10:45:45;;;;;;;20.08;11.52;;;;;;;;;;4959895;28;20090;-66
2021/11/19 10:48:33;;;;;;;26.33;13.85;;;;;;;;;;4957939;28;20054;-66
2021/11/19 10:51:24;;;;;;;24.95;14.73;;;;;;;;;;4960507;28;20503;-67
2021/11/19 10:54:18;;;;;;;28.08;14.18;;;;;;;;;;4946608;28;20110;-67
2021/11/19 10:56:58;;;;;;;23.75;13.15;;;;;;;;;;4960468;28;20106;-66
2021/11/19 10:59:31;;;;;;;24.33;13.43;;;;;;;;;;4957300;28;20098;-68
2021/11/19 11:02:18;;;;;;;25.63;13.68;;;;;;;;;;4959966;28;20051;-67
2021/11/19 11:04:57;;;;;;;21.65;12.45;;;;;;;;;;4955828;28;20051;-68
2021/11/19 11:07:31;;;;;;;19.55;12.60;;;;;;;;;;4959158;28;20435;-68
2021/11/19 11:09:57;;;;;;;29.25;14.63;;;;;;;;;;4918827;28;20074;-72
2021/11/19 11:12:31;;;;;;;25.13;14.95;;;;;;;;;;4960123;28;20093;-68
2021/11/19 11:15:25;;;;;;;25.60;14.23;;;;;;;;;;4958661;28;20047;-67
2021/11/19 11:18:15;;;;;;;22.30;14.00;;;;;;;;;;4946573;28;20105;-71
2021/11/19 11:20:57;;;;;;;25.17;13.90;;;;;;;;;;4942902;28;20047;-71
2021/11/19 11:23:36;;;;;;;22.55;14.55;;;;;;;;;;4963119;28;20101;-65
2021/11/19 11:26:19;;;;;;;28.95;16.55;;;;;;;;;;4959320;28;20051;-68
2021/11/19 11:28:56;;;;;;;24.73;15.40;;;;;;;;;;4964437;28;20091;-68
2021/11/19 11:31:51;;;;;;;25.55;13.35;;;;;;;;;;4962543;28;20097;-68
2021/11/19 11:34:24;;;;;;;29.88;14.77;;;;;;;;;;4963304;28;20733;-70
2021/11/19 11:37:13;;;;;;;26.40;13.38;;;;;;;;;;4962377;28;20086;-71
2021/11/19 11:40:05;;;;;;;25.70;13.98;;;;;;;;;;4959473;28;20055;-66
2021/11/19 11:42:45;;;;;;;23.48;13.32;;;;;;;;;;4961327;28;20083;-68
2021/11/19 11:45:41;;;;;;;32.75;13.98;;;;;;;;;;4957581;28;20055;-66
2021/11/19 11:48:40;;;;;;;28.90;14.48;;;;;;;;;;4964121;28;20114;-67
2021/11/19 11:51:13;;;;;;;26.88;15.57;;;;;;;;;;4945064;28;20059;-71
2021/11/19 11:53:57;;;;;;;23.05;12.90;;;;;;;;;;4946181;28;20124;-68
2021/11/19 11:56:40;;;;;;;24.45;12.73;;;;;;;;;;4931951;28;20055;-68
2021/11/19 11:59:29;;;;;;;26.02;13.80;;;;;;;;;;4945847;28;20050;-69
2021/11/19 12:02:29;;;;;;;21.95;13.23;;;;;;;;;;4937059;28;20081;-71
2021/11/19 12:05:10;;;;;;;23.90;13.90;;;;;;;;;;4960762;28;20050;-71
2021/11/19 12:08:10;;;;;;;25.73;14.30;;;;;;;;;;4941804;28;20051;-69
2021/11/19 12:10:36;;;;;;;23.42;13.68;;;;;;;;;;4962905;28;20055;-69
2021/11/19 12:13:47;;;;;;;25.67;12.10;;;;;;;;;;4961873;28;20115;-70
2021/11/19 12:16:32;;;;;;;23.17;13.07;;;;;;;;;;4926523;29;20052;-73
2021/11/19 12:19:22;;;;;;;23.35;13.00;;;;;;;;;;4940550;28;20105;-71
2021/11/19 12:22:00;;;;;;;20.33;13.55;;;;;;;;;;4933633;28;20106;-73
2021/11/19 12:24:34;;;;;;;22.23;13.45;;;;;;;;;;4933237;28;20074;-71
2021/11/19 12:27:38;;;;;;;22.52;12.85;;;;;;;;;;4960673;28;20139;-68
2021/11/19 12:30:14;;;;;;;25.67;12.82;;;;;;;;;;4930685;28;20447;-69
2021/11/19 12:32:47;;;;;;;21.15;12.55;;;;;;;;;;4956690;28;20071;-68
2021/11/19 12:35:20;;;;;;;18.60;11.68;;;;;;;;;;4944878;28;20053;-71
2021/11/19 12:37:53;;;;;;;22.02;13.60;;;;;;;;;;4961515;28;20092;-67
2021/11/19 12:40:26;;;;;;;25.15;12.35;;;;;;;;;;4959994;28;20040;-68
2021/11/19 12:43:15;;;;;;;;;;;;;;;;;;4973593;28;20054;-68
2021/11/19 12:45:45;;;;;;;22.35;12.95;;;;;;;;;;4915511;28;20004;-68
2021/11/19 12:48:21;;;;;;;22.88;12.65;;;;;;;;;;4941727;28;20559;-70
2021/11/19 12:51:11;;;;;;;22.17;12.65;;;;;;;;;;4944817;28;20113;-69
2021/11/19 12:54:02;;;;;;;20.23;12.38;;;;;;;;;;4949287;28;20047;-71
2021/11/19 12:56:43;;;;;;;23.48;13.60;;;;;;;;;;4945013;28;20054;-72
2021/11/19 12:59:17;;;;;;;21.55;12.07;;;;;;;;;;4944591;28;20046;-71
2021/11/19 13:02:19;;;;;;;27.23;13.43;;;;;;;;;;4924832;28;20121;-71
2021/11/19 13:05:07;;;;;;;21.65;12.15;;;;;;;;;;4941325;28;20254;-72
2021/11/19 13:07:46;;;;;;;18.85;11.30;;;;;;;;;;4948088;28;20046;-71
2021/11/19 13:10:16;;;;;;;26.40;13.18;;;;;;;;;;4948027;28;20429;-70
2021/11/19 13:13:03;;;;;;;24.95;13.45;;;;;;;;;;4961320;28;20047;-72
2021/11/19 13:15:47;;;;;;;23.15;13.10;;;;;;;;;;4961320;28;20055;-67
2021/11/19 13:18:17;;;;;;;20.13;11.80;;;;;;;;;;4938815;28;20122;-68
2021/11/19 13:20:44;;;;;;;21.58;12.65;;;;;;;;;;4955263;28;20130;-70
2021/11/19 13:23:31;;;;;;;27.60;13.52;;;;;;;;;;4957550;28;20051;-70
2021/11/19 13:26:11;;;;;;;30.52;12.65;;;;;;;;;;4957488;28;20070;-68
2021/11/19 13:28:52;;;;;;;25.27;12.45;;;;;;;;;;4958373;28;20458;-69
2021/11/19 13:31:22;;;;;;;20.90;11.68;;;;;;;;;;4958558;28;20050;-70
2021/11/19 13:34:04;;;;;;;23.83;12.35;;;;;;;;;;4957584;28;20055;-69
2021/11/19 13:36:48;;;;;;;21.98;11.73;;;;;;;;;;4954200;28;20057;-69
2021/11/19 13:39:26;;;;;;;24.75;11.85;;;;;;;;;;4957678;28;20051;-66
2021/11/19 13:41:59;;;;;;;25.25;12.40;;;;;;;;;;4957738;28;20390;-69
2021/11/19 13:44:51;;;;;;;24.40;12.23;;;;;;;;;;4956931;28;20074;-69
2021/11/19 13:47:26;;;;;;;23.17;12.10;;;;;;;;;;4952996;28;20581;-68
2021/11/19 13:50:33;;;;;;;20.13;11.13;;;;;;;;;;4956049;28;20113;-68
2021/11/19 13:53:00;;;;;;;21.63;11.55;;;;;;;;;;4954093;28;20662;-69
2021/11/19 13:55:47;;;;;;;18.70;10.50;;;;;;;;;;4957795;28;20179;-69
2021/11/19 13:58:32;;;;;;;17.65;10.25;;;;;;;;;;4928248;28;20043;-68
2021/11/19 14:01:34;;;;;;;18.80;10.18;;;;;;;;;;4956778;28;20111;-71
2021/11/19 14:04:02;;;;;;;22.77;12.80;;;;;;;;;;4961132;28;20062;-68
2021/11/19 14:07:12;;;;;;;26.58;11.52;;;;;;;;;;4955973;28;20138;-69
2021/11/19 14:09:46;;;;;;;21.02;10.93;;;;;;;;;;4941803;28;20051;-68
2021/11/19 14:12:29;;;;;;;24.05;11.77;;;;;;;;;;4953197;28;21157;-67
2021/11/19 14:15:00;;;;;;;19.35;10.65;;;;;;;;;;4955531;28;20455;-67
2021/11/19 14:17:32;;;;;;;20.02;10.23;;;;;;;;;;4928711;28;20062;-68
2021/11/19 14:23:22;;;;;;;21.27;11.95;;;;;;;;;;4950587;28;20537;-69
2021/11/19 14:25:53;;;;;;;21.65;11.85;;;;;;;;;;4939442;28;20050;-65
2021/11/19 14:28:27;;;;;;;20.02;11.18;;;;;;;;;;4918530;28;20138;-66
2021/11/19 14:30:55;;;;;;;20.48;12.57;;;;;;;;;;4941597;28;20558;-68
2021/11/19 14:33:32;;;;;;;23.35;13.07;;;;;;;;;;4957507;28;20514;-67
2021/11/19 14:36:15;;;;;;;18.60;12.77;;;;;;;;;;4944270;28;20106;-68
2021/11/19 14:38:44;;;;;;;20.15;12.55;;;;;;;;;;4957743;28;20773;-68
2021/11/19 14:41:39;;;;;;;18.85;11.88;;;;;;;;;;4939855;28;20039;-66
2021/11/19 14:44:31;;;;;;;25.48;13.35;;;;;;;;;;4946406;28;20050;-67
2021/11/19 14:47:27;;;;;;;19.83;12.45;;;;;;;;;;4961100;28;20047;-66
2021/11/19 14:50:11;;;;;;;24.77;12.48;;;;;;;;;;4959073;28;20050;-68
2021/11/19 14:52:52;;;;;;;24.60;13.10;;;;;;;;;;4959538;28;20085;-67
2021/11/19 14:55:48;;;;;;;22.75;12.73;;;;;;;;;;4939888;28;20134;-66
2021/11/19 14:58:22;;;;;;;23.27;12.52;;;;;;;;;;4957558;28;20502;-68
2021/11/19 15:00:53;;;;;;;28.17;14.30;;;;;;;;;;4939444;28;20056;-67
2021/11/19 15:03:33;;;;;;;27.13;13.73;;;;;;;;;;4943971;28;20550;-66
2021/11/19 15:06:14;;;;;;;24.98;12.93;;;;;;;;;;4941430;28;20066;-68